CheckWX is a tool to help pilots better visualize weather data.  It is not intended as a substitute for an official pre-flight weather briefing.

18:37:11 UTC

KOJC METAR
Johnson County Executive Airport
Olathe, Kansas, USA
Current

44 mins ago

KOJC 261753Z 13004KT 10SM FEW037 13/04 A3038 RMK AO2 SLP288 T01280039 10128 20028 58006
Observed
Mar-26 @ 17:53 UTC
Wind
  • 130° at 4 KTS
Visibility
10 SM
Flight Rules
VFR
Cloud Levels
  • Few at 3,700' AGL
Temperature
13°C / 55°F
Dewpoint
C / 39°F
Humidity
55%
Altimeter
30.38" Hg
Pressure
1028.8 hPa
Previous

2 hours ago

KOJC 261653Z 13004KT 10SM FEW020 12/04 A3040 RMK AO2 SLP294 T01170039
Observed
Mar-26 @ 16:53 UTC
Wind
  • 130° at 4 KTS
Visibility
10 SM
Flight Rules
VFR
Cloud Levels
  • Few at 2,000' AGL
Temperature
12°C / 54°F
Dewpoint
C / 39°F
Humidity
58%
Altimeter
30.4" Hg
Pressure
1029.4 hPa
Previous

3 hours ago

KOJC 261553Z 16006KT 10SM CLR 11/04 A3040 RMK AO2 SLP296 T01060039
Observed
Mar-26 @ 15:53 UTC
Wind
  • 160° at 6 KTS
Visibility
10 SM
Flight Rules
VFR
Cloud Levels
  • Clear skies
Temperature
11°C / 52°F
Dewpoint
C / 39°F
Humidity
62%
Altimeter
30.4" Hg
Pressure
1029.6 hPa